Blue Oak Ranch Reserve, California Weather observations

Data are for 10 minute period ending at time listed.
 Day   Time   Solar   Ave.   Ave.  Ave.  Vector  Max.   Baro.   Total    
  of    of     Rad.   Air    Rel.  Wind   Wind   Wind  Press.  Precip.   
Year   Day            Temp.  Hum.  Speed  Dir.   Gust                    
2026   (PST)  Kw/m2    F      %     mph   deg.    mph    mb.     in.     
-------------------------------------------------------------------------
 244    2:20   0.00   52.7    78    3.7   282     5.8   948.4    0.00 
 244    2:30   0.00   52.8    78    3.7   274     8.6   948.5    0.00 
 244    2:40   0.00   52.8    76    3.8   277     8.0   948.5    0.00 
 244    2:50   0.00   52.8    76    3.6   265     7.0   948.6    0.00 
 244    3:00   0.00   52.7    76    3.5   286     7.1   948.6    0.00 
 244    3:10   0.00   52.7    75    3.9   295     7.2   948.6    0.00 
 244    3:20   0.00   52.7    76    3.3   263     6.0   948.7    0.00 
 244    3:30   0.00   52.8    76    4.6   277     7.8   948.8    0.00 
 244    3:40   0.00   52.8    76    4.4   292     7.5   948.8    0.00 
 244    3:50   0.00   52.7    77    3.4   246     7.2   948.7    0.00 
 244    4:00   0.00   52.5    76    3.8   262     7.9   948.6    0.00 
 244    4:10   0.00   52.5    75    3.8   316     7.5   948.4    0.00 
 244    4:20   0.00   52.4    75    4.0   306     6.5   948.5    0.00 
 244    4:30   0.00   52.4    76    4.0   261     8.7   948.6    0.00 
 244    4:40   0.00   52.4    76    0.2   284     1.5   948.7    0.00 
 244    4:50   0.00   52.5    76    1.2   281     3.4   948.8    0.00 
 244    5:00   0.00   52.4    76    3.0   231     5.9   948.7    0.00 
 244    5:10   0.00   52.4    76    3.3   284     5.6   948.6    0.00 
 244    5:20   0.00   52.3    76    3.2   297     5.8   948.8    0.00 
 244    5:30   0.00   52.3    74    1.2   216     2.8   948.9    0.00 
 244    5:40   0.00   52.3    75    1.4   232     2.5   949.0    0.00 
 244    5:50   0.01   52.4    74    1.2   264     2.3   949.0    0.00 
 244    6:00   0.01   52.5    74    2.0   260     3.7   949.0    0.00 
 244    6:10   0.02   52.7    74    1.8   269     2.9   949.1    0.00 
 244    6:20   0.03   52.8    73    1.4   263     2.6   949.4    0.00 
 244    6:30   0.04   53.0    73    1.4   236     2.8   949.5    0.00 
 244    6:40   0.06   53.3    73    2.2   226     4.2   949.6    0.00 
 244    6:50   0.08   53.5    72    3.5   258     6.8   949.6    0.00 
 244    7:00   0.09   53.7    71    3.7   236     6.4   949.8    0.00 
 244    7:10   0.10   53.7    71    3.5   234     5.9   949.9    0.00 
 244    7:20   0.12   54.0    70    3.4   242     5.9   950.0    0.00 
 244    7:30   0.13   54.3    70    2.8   241     5.0   950.0    0.00 
 244    7:40   0.16   54.6    69    3.1   247     6.7   950.1    0.00 
 244    7:50   0.20   54.9    68    3.3   222     7.0   950.1    0.00 
 244    8:00   0.21   55.0    67    3.4   232     7.2   950.2    0.00 
 244    8:10   0.26   55.6    66    3.5   256     7.6   950.3    0.00 
 244    8:20   0.24   56.5    63    5.1   260     8.9   950.5    0.00 
 244    8:30   0.24   56.1    64    4.7   263    10.1   950.6    0.00 
 244    8:40   0.30   56.5    62    5.6   290    10.2   950.6    0.00 
 244    8:50   0.49   57.6    60    5.1   268     9.7   950.4    0.00 
 244    9:00   0.32   58.2    59    3.5   276     8.1   950.6    0.00 
 244    9:10   0.33   57.7    60    3.1   170     8.2   950.6    0.00 
 244    9:20   0.73   57.1    60    3.9   179     7.4   950.6    0.00 
 244    9:30   0.83   59.5    55    4.4   223    10.4   950.7    0.00 
 244    9:40   0.85   60.4    54    3.3   194     7.4   950.8    0.00 
 244    9:50   0.88   61.9    51    5.9   234     9.4   950.9    0.00 
 244   10:00   0.83   61.6    51    4.0   222     7.9   950.9    0.00 
 244   10:10   0.84   62.1    50    4.0   254     8.3   950.9    0.00 
 244   10:20   0.84   62.6    50    6.0   258    11.5   951.0    0.00 
 244   10:30   0.86   64.1    47    6.1   269    11.5   951.0    0.00 
 244   10:40   0.86   64.1    46    4.4   248    11.6   951.0    0.00 
 244   10:50   0.87   63.5    46    5.1   261     9.5   951.0    0.00 
 244   11:00   0.89   63.0    47    5.6   221    10.8   950.9    0.00 
 244   11:10   0.90   63.3    47    5.5   205    11.0   950.9    0.00 
 244   11:20   0.92   64.0    45    5.9   244    12.1   950.9    0.00 
 244   11:30   0.95   65.3    43    4.0   231     9.8   950.7    0.00 
 244   11:40   0.98   65.6    42    5.9   267    10.9   950.7    0.00 
 244   11:50   0.97   66.7    41    5.9   238    10.4   950.7    0.00 
 244   12:00   0.93   66.4    41    4.7   248    10.4   950.7    0.00 
 244   12:10   0.91   66.7    40    4.8   257    11.7   950.6    0.00 
 244   12:20   0.82   66.4    40    7.2   248    15.1   950.6    0.00 
 244   12:30   0.78   66.4    40    6.2   246    10.7   950.5    0.00 
 244   12:40   1.00   68.3    38    8.0   269    14.7   950.4    0.00 
 244   12:50   0.92   67.9    38    4.0   233    10.7   950.4    0.00 
 244   13:00   0.92   67.3    38    4.5   223     8.7   950.3    0.00 
 244   13:10   0.95   67.7    39    5.5   261    11.4   950.2    0.00 
 244   13:20   0.93   68.5    38    6.2   239    12.7   950.1    0.00 
 244   13:30   0.91   69.6    37    5.2   239    11.7   950.1    0.00 
 244   13:40   0.86   68.7    39    7.3   240    13.3   950.2    0.00 
 244   13:50   0.81   69.3    38    9.0   265    15.4   950.2    0.00 
 244   14:00   0.84   68.1    41    7.0   230    14.0   950.2    0.00 
 244   14:10   0.81   68.6    41    8.0   268    17.8   950.2    0.00 
 244   14:20   0.79   68.4    42    8.0   262    17.5   950.1    0.00 
 244   14:30   0.77   68.9    41    6.5   274    13.4   950.0    0.00 
 244   14:40   0.74   69.8    40    7.0   270    14.2   950.0    0.00 
 244   14:50   0.72   69.1    41    7.3   278    14.0   949.9    0.00 
 244   15:00   0.69   70.1    40    8.5   270    14.8   949.9    0.00 
 244   15:10   0.66   69.6    41    9.3   271    15.3   949.8    0.00 
 244   15:20   0.63   68.8    42   11.2   283    18.7   949.9    0.00 
 244   15:30   0.60   67.4    45   11.9   285    20.5   949.8    0.00 
 244   15:40   0.57   67.2    45   11.1   282    18.2   949.9    0.00 
 244   15:50   0.54   67.0    45   11.0   280    15.9   949.9    0.00 
 244   16:00   0.51   67.5    45    9.4   276    17.7   949.9    0.00 
 244   16:10   0.47   66.3    46   12.4   275    18.0   949.9    0.00 
 244   16:20   0.44   65.4    48   10.6   283    16.4   949.9    0.00 
 244   16:30   0.40   64.8    49   10.0   285    15.7   949.9    0.00 
 244   16:40   0.37   64.3    49    9.4   282    16.0   949.9    0.00 
 244   16:50   0.33   64.1    50    8.4   278    16.4   949.9    0.00 
 244   17:00   0.30   63.6    50    8.1   286    14.4   950.0    0.00 
 244   17:10   0.26   62.9    52    8.2   296    13.3   950.0    0.00 
 244   17:20   0.23   62.5    52    8.3   284    12.7   950.1    0.00 
 244   17:30   0.20   62.2    53    7.5   285    15.4   950.0    0.00 
 244   17:40   0.16   61.6    54    7.6   298    12.7   950.1    0.00 
 244   17:50   0.13   60.8    56    7.1   292    12.1   950.1    0.00 
 244   18:00   0.10   59.5    59    8.7   307    15.9   950.2    0.00 
 244   18:10   0.07   59.2    60    6.1   293    11.2   950.2    0.00 
 244   18:20   0.03   58.7    61    6.6   289    10.5   950.2    0.00 
 244   18:30   0.01   58.1    63    4.8   294     9.7   950.3    0.00 
 244   18:40   0.01   57.6    64    5.4   286     9.5   950.4    0.00 
 244   18:50   0.00   57.1    65    4.5   288    12.0   950.5    0.00 
 244   19:00   0.00   56.6    67    4.0   298     8.5   950.6    0.00 
 244   19:10   0.00   56.3    68    3.7   314     7.7   950.6    0.00 
 244   19:20   0.00   56.0    69    3.2   306     6.9   950.7    0.00 
 244   19:30   0.00   55.6    70    3.0   313     6.9   950.9    0.00 
 244   19:40   0.00   55.4    71    2.4   336     5.0   950.9    0.00 
 244   19:50   0.00   54.8    71    1.7   342     4.8   951.0    0.00 
 244   20:00   0.00   54.4    73    2.2   303     5.9   951.1    0.00 
 244   20:10   0.00   53.7    74    0.7   280     3.1   951.3    0.00 
 244   20:20   0.00   53.0    76    1.6   316     5.9   951.3    0.00 
 244   20:30   0.00   52.9    76    0.7   317     3.4   951.3    0.00 
 244   20:40   0.00   52.4    79    2.4   357     4.9   951.4    0.00 
 244   20:50   0.00   52.8    79    2.8   358     5.3   951.3    0.00 
 244   21:00   0.00   52.5    80    2.0     3     2.8   951.4    0.00 
 244   21:10   0.00   51.6    80    0.5    87     1.9   951.4    0.00 
 244   21:20   0.00   50.7    81    0.3   144     1.5   951.4    0.00 
 244   21:30   0.00   50.1    82    0.3     7     1.8   951.4    0.00 
 244   21:40   0.00   49.7    83    0.1   283     0.9   951.3    0.00 
 244   21:50   0.00   49.3    84    0.6   355     3.4   951.3    0.00 
 244   22:00   0.00   49.1    84    1.6   299     3.3   951.2    0.00 
 244   22:10   0.00   48.8    85    0.9   306     3.4   951.0    0.00 
 244   22:20   0.00   48.6    86    0.9   275     2.0   951.0    0.00 
 244   22:30   0.00   48.6    86    0.1   354     1.7   950.9    0.00 
 244   22:40   0.00   48.4    87    0.9   263     2.1   950.9    0.00 
 244   22:50   0.00   48.3    87    0.3   282     2.0   950.9    0.00 
 244   23:00   0.00   48.2    86    0.1   345     1.1   951.0    0.00 
 244   23:10   0.00   48.0    86    0.9   295     1.9   951.0    0.00 
 244   23:20   0.00   47.6    87    1.6   288     3.1   951.0    0.00 
 244   23:30   0.00   47.4    87    0.0    42     0.5   951.0    0.00 
 244   23:40   0.00   47.4    87    0.0     0     0.0   951.0    0.00 
 244   23:50   0.00   47.2    86    0.1    42     0.8   951.0    0.00 
 245    0:00   0.00   47.0    85    0.8    49     2.3   950.9    0.00 
 245    0:10   0.00   46.7    85    1.6   280     3.1   950.9    0.00 
 245    0:20   0.00   46.3    86    0.5    33     1.6   950.9    0.00 
 245    0:30   0.00   46.4    86    0.0    51     0.4   950.9    0.00 
 245    0:40   0.00   46.4    86    0.1   120     0.9   950.9    0.00 
 245    0:50   0.00   46.4    86    0.6    52     2.4   950.9    0.00 
 245    1:00   0.00   46.3    84    1.3    51     3.0   950.9    0.00 
 245    1:10   0.00   45.6    85    1.2   285     2.3   950.9    0.00 
 245    1:20   0.00   46.0    86    0.2   288     1.4   950.9    0.00 
 245    1:30   0.00   46.6    84    0.4   286     1.8   950.9    0.00 
 245    1:40   0.00   46.6    84    0.1   280     1.2   950.8    0.00 
 245    1:50   0.00   46.7    84    0.7   286     2.2   950.8    0.00 
 245    2:00   0.00   46.3    85    1.8   291     2.7   950.9    0.00 
 245    2:10   0.00   46.2    85    1.0   302     2.3   951.0    0.00 

Return to Blue Oak Ranch Reserve graphs page.


Western Regional Climate Center,wrcc@dri.edu